Time;durP1;ratioP1;P1;durP2;ratioP2;P2;SDS_P1;SDS_P2;PMS_P1;PMS_P2;Temp;Humidity;BMP_temperature;BMP_pressure;BME280_temperature;BME280_humidity;BME280_pressure;Samples;Min_cycle;Max_cycle;Signal;HPM_P1;HPM_P2
2023/09/05 00:00:19;;;;;;;15.30;6.85;;;;;;;16.91;70.97;100430.13;4996251;28;20062;-95
2023/09/05 00:02:48;;;;;;;12.13;6.10;;;;;;;16.90;70.63;100422.16;5004712;28;20081;-88
2023/09/05 00:05:17;;;;;;;17.27;6.07;;;;;;;16.70;70.68;100389.69;4975050;28;20057;-88
2023/09/05 00:07:43;;;;;;;25.10;7.05;;;;;;;16.77;70.47;100407.41;4966569;28;20045;-90
2023/09/05 00:10:11;;;;;;;23.13;6.57;;;;;;;16.84;70.76;100426.25;4968673;28;20034;-88
2023/09/05 00:12:40;;;;;;;13.65;6.70;;;;;;;16.71;70.67;100396.84;5016031;28;20325;-90
2023/09/05 00:15:12;;;;;;;16.60;7.13;;;;;;;16.79;70.48;100398.81;4964691;28;20047;-88
2023/09/05 00:17:40;;;;;;;19.33;6.95;;;;;;;16.86;70.70;100422.00;4981368;28;20075;-87
2023/09/05 00:20:07;;;;;;;19.90;7.25;;;;;;;16.75;71.06;100412.44;5001170;28;20463;-88
2023/09/05 00:22:37;;;;;;;18.80;6.78;;;;;;;16.73;70.96;100413.91;4965026;28;20042;-90
2023/09/05 00:25:04;;;;;;;17.85;7.25;;;;;;;16.66;71.01;100401.38;4999987;28;20117;-88
2023/09/05 00:27:30;;;;;;;21.65;7.45;;;;;;;16.78;71.48;100433.06;4971732;28;20503;-88
2023/09/05 00:29:57;;;;;;;17.85;7.25;;;;;;;16.50;71.85;100408.56;5006058;28;20057;-88
2023/09/05 00:32:23;;;;;;;20.30;7.37;;;;;;;16.26;71.44;100375.94;4983071;28;20415;-88
2023/09/05 00:34:50;;;;;;;26.73;6.78;;;;;;;16.56;71.66;100420.25;4999430;28;20311;-87
2023/09/05 00:37:21;;;;;;;22.77;6.80;;;;;;;16.53;72.03;100427.22;4979862;28;20468;-90
2023/09/05 00:39:49;;;;;;;23.67;7.18;;;;;;;16.34;72.48;100402.72;4966963;28;20500;-88
2023/09/05 00:42:17;;;;;;;20.48;6.85;;;;;;;16.46;71.80;100421.38;4980521;28;20042;-90
2023/09/05 00:44:49;;;;;;;18.90;7.85;;;;;;;16.25;71.76;100395.56;4981246;28;20042;-93
2023/09/05 00:47:16;;;;;;;17.15;7.07;;;;;;;16.38;72.20;100420.22;4954914;28;20050;-86
2023/09/05 00:49:47;;;;;;;17.38;7.28;;;;;;;16.38;71.83;100424.94;4946907;28;20054;-89
2023/09/05 00:52:14;;;;;;;20.50;7.47;;;;;;;16.50;72.17;100444.44;4954361;28;20042;-88
2023/09/05 00:54:42;;;;;;;14.73;6.60;;;;;;;16.49;72.05;100442.81;4963519;28;20050;-96
2023/09/05 00:57:17;;;;;;;17.25;6.93;;;;;;;16.48;71.92;100435.66;4946678;28;20071;-91
2023/09/05 00:59:44;;;;;;;70.53;8.52;;;;;;;16.32;71.96;100421.53;4961369;28;20043;-89
2023/09/05 01:02:11;;;;;;;35.30;7.38;;;;;;;16.27;72.28;100418.13;4972180;28;20524;-87
2023/09/05 01:04:37;;;;;;;26.35;7.32;;;;;;;16.23;72.74;100412.47;4974536;28;20208;-86
2023/09/05 01:07:21;;;;;;;13.73;6.63;;;;;;;15.91;72.61;100377.88;4977553;28;20142;-89
2023/09/05 01:09:54;;;;;;;21.63;7.20;;;;;;;16.38;72.54;100438.75;4946227;28;20050;-89
2023/09/05 01:12:20;;;;;;;13.77;6.80;;;;;;;16.28;72.09;100430.78;4971259;28;20504;-89
2023/09/05 01:14:46;;;;;;;51.75;8.18;;;;;;;16.35;72.34;100433.88;4942781;28;20039;-89
2023/09/05 01:17:14;;;;;;;27.77;7.40;;;;;;;16.11;72.73;100402.06;4984464;28;20148;-89
2023/09/05 01:19:43;;;;;;;18.70;7.28;;;;;;;16.33;72.50;100436.97;4983224;28;20520;-91
2023/09/05 01:22:33;;;;;;;22.17;6.93;;;;;;;16.36;72.84;100438.28;4935592;28;20049;-91
2023/09/05 01:24:59;;;;;;;14.70;6.35;;;;;;;16.21;72.81;100421.03;4951460;28;20093;-88
2023/09/05 01:27:27;;;;;;;21.35;6.22;;;;;;;16.06;72.12;100399.47;5004498;28;20030;-90
2023/09/05 01:29:55;;;;;;;17.35;6.50;;;;;;;16.14;72.85;100406.94;5003538;28;20064;-90
2023/09/05 01:32:21;;;;;;;10.00;6.32;;;;;;;16.29;73.13;100441.53;5010021;28;20042;-89
2023/09/05 01:34:47;;;;;;;14.15;6.80;;;;;;;16.04;72.51;100396.22;4965209;28;20043;-91
2023/09/05 01:37:16;;;;;;;15.13;6.20;;;;;;;16.14;72.93;100417.16;4967502;28;20110;-89
2023/09/05 01:39:42;;;;;;;18.48;6.82;;;;;;;16.21;73.51;100447.81;4982025;28;20478;-90
2023/09/05 01:42:08;;;;;;;22.30;6.68;;;;;;;15.93;73.22;100403.19;4982731;28;20500;-89
2023/09/05 01:44:36;;;;;;;17.52;7.40;;;;;;;15.98;72.86;100416.81;4975128;28;20491;-89
2023/09/05 01:47:03;;;;;;;18.90;6.90;;;;;;;16.13;72.58;100427.38;4970346;28;20496;-89
2023/09/05 01:49:30;;;;;;;17.65;7.53;;;;;;;16.10;72.47;100413.44;4985023;28;20106;-89
2023/09/05 01:51:56;;;;;;;21.55;8.48;;;;;;;16.00;72.66;100413.75;4985004;28;20193;-90
2023/09/05 01:54:24;;;;;;;33.47;11.00;;;;;;;15.98;72.94;100414.03;4969774;28;20499;-89
2023/09/05 01:56:50;;;;;;;19.08;9.40;;;;;;;15.94;73.35;100424.91;5001626;28;20384;-88
2023/09/05 01:59:19;;;;;;;;;;;;;;;16.01;73.42;100434.66;4985163;28;20112;-92
2023/09/05 02:01:46;;;;;;;22.45;10.63;;;;;;;15.97;73.63;100440.00;4986921;28;19948;-90
2023/09/05 02:04:12;;;;;;;16.85;9.82;;;;;;;15.55;73.23;100372.56;4981498;28;20034;-87
2023/09/05 02:06:39;;;;;;;16.95;8.80;;;;;;;15.66;72.74;100383.03;4954557;28;20062;-89
2023/09/05 02:09:05;;;;;;;21.15;9.25;;;;;;;15.74;73.49;100418.06;4980401;28;20415;-88
2023/09/05 02:11:32;;;;;;;13.70;5.80;;;;;;;15.90;73.37;100431.41;4988332;28;20037;-90
2023/09/05 02:13:58;;;;;;;19.63;8.00;;;;;;;15.77;73.11;100402.81;4998400;28;20046;-90
2023/09/05 02:16:27;;;;;;;18.33;7.78;;;;;;;16.00;72.46;100439.38;4963449;28;20049;-90
2023/09/05 02:18:56;;;;;;;16.15;6.88;;;;;;;15.74;72.69;100392.44;4934801;29;20058;-88
2023/09/05 02:21:42;;;;;;;18.23;7.20;;;;;;;16.02;72.78;100439.03;4918180;29;20068;-96
2023/09/05 02:24:07;;;;;;;17.13;6.90;;;;;;;16.00;72.24;100444.88;4927253;28;20058;-87
2023/09/05 02:26:33;;;;;;;19.07;7.40;;;;;;;15.84;72.50;100424.41;4976914;28;20117;-92
2023/09/05 02:28:59;;;;;;;18.63;6.88;;;;;;;15.59;72.86;100390.09;4961213;28;20046;-88
2023/09/05 02:31:25;;;;;;;16.35;7.18;;;;;;;15.77;72.99;100424.88;4942999;28;20055;-88
2023/09/05 02:33:52;;;;;;;18.98;6.28;;;;;;;15.61;72.80;100394.16;4959679;28;20054;-92
2023/09/05 02:36:18;;;;;;;14.05;6.65;;;;;;;15.54;72.82;100382.78;4948111;28;20054;-91
2023/09/05 02:38:46;;;;;;;20.77;6.80;;;;;;;15.68;72.78;100404.75;4953161;28;20047;-86
2023/09/05 02:41:18;;;;;;;17.80;6.75;;;;;;;15.66;73.08;100413.34;4968592;28;20172;-87
2023/09/05 02:43:47;;;;;;;17.15;6.75;;;;;;;15.91;73.19;100446.81;4964736;28;20065;-88
2023/09/05 02:46:14;;;;;;;27.25;6.95;;;;;;;15.94;73.59;100457.19;4931696;29;20031;-94
2023/09/05 02:48:42;;;;;;;28.30;7.53;;;;;;;15.67;73.06;100401.19;4911131;28;20156;-88
2023/09/05 02:51:14;;;;;;;269.38;15.80;;;;;;;15.89;72.66;100438.03;4929369;29;20055;-88
2023/09/05 02:53:42;;;;;;;59.35;7.72;;;;;;;15.93;73.06;100458.34;4942431;28;20043;-87
2023/09/05 02:56:08;;;;;;;15.70;6.07;;;;;;;15.70;73.06;100432.81;4979106;28;20074;-89
2023/09/05 02:58:34;;;;;;;38.42;7.85;;;;;;;15.71;73.09;100421.44;4985669;28;20046;-88
2023/09/05 03:01:11;;;;;;;19.97;6.50;;;;;;;15.83;73.20;100447.63;4982773;28;20072;-88
2023/09/05 03:03:38;;;;;;;43.83;7.95;;;;;;;15.72;72.94;100433.28;4968920;28;20046;-89
2023/09/05 03:09:55;;;;;;;24.63;7.00;;;;;;;15.20;73.54;100372.47;4923425;29;20062;-96
2023/09/05 03:12:47;;;;;;;15.40;6.72;;;;;;;15.58;73.53;100416.84;4910867;29;20048;-95
2023/09/05 03:15:20;;;;;;;;;;;;;;;15.90;73.58;100467.25;4897187;29;20180;-96
2023/09/05 03:18:17;;;;;;;15.35;6.80;;;;;;;15.87;73.66;100454.91;4889740;29;19907;-94
2023/09/05 03:21:07;;;;;;;16.00;6.82;;;;;;;15.49;73.72;100389.25;4864196;29;20029;-96
2023/09/05 03:24:03;;;;;;;14.48;6.95;;;;;;;15.86;73.39;100435.91;4899194;29;20101;-94
2023/09/05 03:26:31;;;;;;;14.70;6.68;;;;;;;15.87;73.43;100435.59;4859146;29;20022;-96
2023/09/05 03:29:18;;;;;;;20.52;7.10;;;;;;;15.58;73.13;100386.53;4856351;29;20061;-96
2023/09/05 03:32:21;;;;;;;24.00;7.38;;;;;;;15.93;73.17;100433.53;4881808;29;20141;-95
2023/09/05 03:35:14;;;;;;;22.35;6.97;;;;;;;15.57;72.77;100371.13;4877924;29;20125;-95
2023/09/05 03:43:25;;;;;;;11.75;6.47;;;;;;;15.76;72.33;100379.16;4981037;23;20331;-95
2023/09/05 03:46:08;;;;;;;14.50;5.55;;;;;;;15.98;71.99;100408.53;4914464;29;20054;-95
2023/09/05 03:49:20;;;;;;;12.48;6.22;;;;;;;16.35;72.10;100469.75;4918961;29;20094;-94
2023/09/05 03:52:19;;;;;;;14.48;6.28;;;;;;;16.08;71.58;100413.72;4857461;29;20517;-95
2023/09/05 03:55:34;;;;;;;13.55;6.00;;;;;;;15.88;71.16;100375.75;4851494;29;20049;-95
2023/09/05 03:58:23;;;;;;;13.27;6.60;;;;;;;15.88;71.59;100382.06;5001864;23;20069;-95
2023/09/05 04:01:23;;;;;;;;;;;;;;;;;;;;;
2023/09/05 04:04:33;;;;;;;;;;;;;;;;;;;;;
2023/09/05 04:07:41;;;;;;;14.80;6.57;;;;;;;16.30;71.28;100440.38;4871870;29;20500;-93
2023/09/05 04:13:32;;;;;;;20.75;7.07;;;;;;;16.26;71.28;100436.66;5304758;23;20511;-95
2023/09/05 04:16:05;;;;;;;12.85;6.72;;;;;;;16.01;70.74;100394.09;4914426;29;20052;-95
2023/09/05 04:18:54;;;;;;;14.32;7.45;;;;;;;16.25;70.72;100418.44;4903866;29;20125;-96
2023/09/05 04:21:40;;;;;;;15.55;7.13;;;;;;;15.96;70.82;100370.25;4901548;29;20033;-95
2023/09/05 04:27:12;;;;;;;20.13;7.15;;;;;;;16.17;70.37;100399.97;5057000;23;20047;-94
2023/09/05 04:35:51;;;;;;;20.92;6.90;;;;;;;16.97;69.50;100444.56;5009377;28;20110;-92
2023/09/05 04:38:19;;;;;;;16.02;7.60;;;;;;;17.12;68.86;100446.81;4940747;28;20038;-92
2023/09/05 04:40:47;;;;;;;13.52;6.90;;;;;;;16.68;68.30;100387.25;4973138;28;20038;-95
2023/09/05 04:43:16;;;;;;;21.42;7.75;;;;;;;17.11;68.97;100470.03;4953485;28;20074;-93
2023/09/05 04:46:10;;;;;;;19.60;7.80;;;;;;;16.94;69.04;100439.69;4947751;28;20046;-95
2023/09/05 04:49:05;;;;;;;18.05;7.85;;;;;;;16.71;68.68;100396.84;5283224;23;20040;-96
2023/09/05 04:51:46;;;;;;;15.90;7.82;;;;;;;17.06;68.95;100448.13;4958689;28;20057;-94
2023/09/05 04:55:13;;;;;;;23.73;7.57;;;;;;;16.94;68.75;100428.66;4976363;28;20021;-96
2023/09/05 04:58:18;;;;;;;13.45;7.00;;;;;;;17.25;68.98;100478.16;4930859;29;20111;-96
2023/09/05 05:01:02;;;;;;;19.48;7.47;;;;;;;17.14;68.99;100454.78;4978208;28;20034;-95
2023/09/05 05:04:22;;;;;;;25.27;8.63;;;;;;;17.50;68.75;100486.69;4981050;28;20042;-96
2023/09/05 05:07:11;;;;;;;17.35;8.00;;;;;;;17.34;68.08;100454.06;4992016;28;20070;-95
2023/09/05 05:10:04;;;;;;;18.95;8.23;;;;;;;17.12;67.84;100410.09;4961334;28;20042;-93
2023/09/05 05:12:49;;;;;;;21.52;8.93;;;;;;;17.10;67.79;100410.41;4982363;28;20046;-94
2023/09/05 05:15:31;;;;;;;23.90;8.75;;;;;;;17.58;67.55;100480.31;4979598;28;20066;-95
2023/09/05 05:27:14;;;;;;;17.65;9.40;;;;;;;17.91;66.65;100455.59;5029386;28;20515;-95
2023/09/05 05:30:02;;;;;;;28.27;9.05;;;;;;;17.96;67.01;100460.97;4977477;28;20581;-88
2023/09/05 05:32:30;;;;;;;29.00;8.85;;;;;;;18.03;65.75;100463.19;4965278;28;20415;-89
2023/09/05 05:34:56;;;;;;;24.63;9.40;;;;;;;18.16;65.95;100472.41;4966505;28;20034;-89
2023/09/05 05:37:22;;;;;;;27.90;9.90;;;;;;;18.23;65.36;100470.72;4974895;28;20121;-91
2023/09/05 05:39:48;;;;;;;23.63;10.90;;;;;;;18.27;65.54;100476.38;4985914;28;20038;-91
2023/09/05 05:42:14;;;;;;;27.40;9.17;;;;;;;18.25;65.19;100460.13;4995943;28;20046;-91
2023/09/05 05:44:40;;;;;;;19.40;8.00;;;;;;;18.34;65.60;100450.94;4963796;28;20076;-90
2023/09/05 05:47:06;;;;;;;26.55;9.48;;;;;;;18.35;64.96;100441.50;4963484;28;20060;-91
2023/09/05 05:49:32;;;;;;;22.63;7.80;;;;;;;18.56;63.75;100469.97;4994645;28;20050;-91
2023/09/05 05:52:00;;;;;;;28.10;9.67;;;;;;;18.67;64.37;100475.91;4956273;28;20062;-92
2023/09/05 05:54:26;;;;;;;23.48;8.68;;;;;;;18.47;63.65;100433.25;4981432;28;20293;-90
2023/09/05 05:56:53;;;;;;;15.88;7.90;;;;;;;18.66;63.42;100463.22;4978397;28;20046;-91
2023/09/05 05:59:24;;;;;;;25.83;9.70;;;;;;;18.68;63.69;100467.28;4994654;28;20137;-90
2023/09/05 06:01:59;;;;;;;21.42;8.57;;;;;;;18.62;62.94;100442.91;4962680;28;20046;-88
2023/09/05 06:04:25;;;;;;;22.40;9.20;;;;;;;18.75;62.50;100453.72;4986513;28;20045;-89
2023/09/05 06:06:52;;;;;;;29.20;10.77;;;;;;;18.58;62.80;100419.81;4964742;28;20297;-91
2023/09/05 06:09:19;;;;;;;31.35;10.43;;;;;;;19.04;62.82;100485.22;4965370;28;20801;-90
2023/09/05 06:11:46;;;;;;;30.25;9.90;;;;;;;18.92;62.17;100449.16;4942114;28;20053;-90
2023/09/05 06:14:15;;;;;;;44.47;10.73;;;;;;;18.99;61.53;100463.25;4980729;28;20503;-91
2023/09/05 06:16:41;;;;;;;46.58;10.55;;;;;;;19.07;61.46;100464.31;4963035;28;20076;-90
2023/09/05 06:19:08;;;;;;;32.97;10.20;;;;;;;19.14;60.93;100472.88;4989777;28;20057;-89
2023/09/05 06:21:35;;;;;;;24.25;10.23;;;;;;;19.19;61.88;100469.91;4952324;28;20043;-90
2023/09/05 06:24:01;;;;;;;32.25;10.25;;;;;;;19.28;62.07;100456.75;4983196;28;20401;-89
2023/09/05 06:26:31;;;;;;;26.27;8.90;;;;;;;19.00;60.41;100404.72;4975816;28;20054;-88
2023/09/05 06:28:58;;;;;;;19.60;7.95;;;;;;;19.41;59.23;100471.47;4988621;28;20038;-89
2023/09/05 06:31:25;;;;;;;27.15;9.88;;;;;;;19.21;59.44;100435.16;4952630;28;20053;-90
2023/09/05 06:33:51;;;;;;;26.45;8.38;;;;;;;19.25;58.46;100436.06;4952233;28;20057;-91
2023/09/05 06:36:17;;;;;;;25.13;8.63;;;;;;;19.33;58.71;100444.63;4981247;28;20112;-89
2023/09/05 06:38:43;;;;;;;32.87;8.20;;;;;;;19.46;58.08;100465.66;4961388;28;20061;-90
2023/09/05 06:41:10;;;;;;;20.33;8.40;;;;;;;19.20;57.64;100421.59;4962401;28;20749;-91
2023/09/05 06:43:37;;;;;;;19.98;6.85;;;;;;;19.26;57.66;100434.09;4965022;28;20046;-89
2023/09/05 06:46:04;;;;;;;32.33;7.47;;;;;;;19.52;58.70;100455.16;4983603;28;20072;-90
2023/09/05 06:48:30;;;;;;;33.53;9.68;;;;;;;19.53;57.94;100451.22;4965076;28;20065;-89
2023/09/05 06:50:58;;;;;;;32.07;7.07;;;;;;;19.75;58.96;100470.25;4949503;28;20077;-91
2023/09/05 06:53:28;;;;;;;37.65;7.32;;;;;;;19.86;58.14;100471.38;4979906;28;20045;-89
2023/09/05 06:55:54;;;;;;;27.10;6.70;;;;;;;19.87;56.21;100464.69;4966556;28;20042;-91
2023/09/05 06:58:23;;;;;;;22.25;6.68;;;;;;;19.77;55.09;100451.28;4942620;29;20066;-90
2023/09/05 07:00:55;;;;;;;19.77;7.25;;;;;;;19.78;55.49;100433.47;4940788;29;20537;-90
2023/09/05 07:03:24;;;;;;;29.73;7.10;;;;;;;19.60;53.79;100432.88;4925706;29;20110;-90
2023/09/05 07:05:52;;;;;;;21.75;6.63;;;;;;;19.55;54.37;100435.88;4932567;29;20644;-89
2023/09/05 07:08:23;;;;;;;34.70;7.20;;;;;;;19.78;55.54;100458.44;4922501;29;20087;-90
2023/09/05 07:10:49;;;;;;;18.00;6.60;;;;;;;19.61;54.16;100434.50;4913337;29;20802;-89
2023/09/05 07:13:16;;;;;;;33.67;6.10;;;;;;;19.96;54.94;100453.44;4935423;29;20047;-90
2023/09/05 07:15:44;;;;;;;28.83;7.05;;;;;;;19.88;54.49;100430.22;4941845;29;20044;-88
2023/09/05 07:18:13;;;;;;;33.53;6.88;;;;;;;20.01;52.29;100456.00;4920711;29;20051;-90
2023/09/05 07:20:41;;;;;;;19.02;6.03;;;;;;;20.09;52.69;100452.28;4927353;29;20040;-90
2023/09/05 07:23:09;;;;;;;39.60;7.43;;;;;;;19.92;52.35;100413.69;4945799;29;20039;-90
2023/09/05 07:25:39;;;;;;;29.05;6.55;;;;;;;20.08;51.58;100430.44;4943114;29;20059;-90
2023/09/05 07:28:05;;;;;;;25.20;6.72;;;;;;;20.06;51.33;100410.53;4938995;29;20066;-89
2023/09/05 07:30:32;;;;;;;17.85;5.13;;;;;;;20.01;50.77;100394.94;4935346;29;20047;-89
2023/09/05 07:32:59;;;;;;;34.42;6.80;;;;;;;20.15;51.52;100414.00;4927762;29;20040;-88
2023/09/05 07:35:25;;;;;;;17.55;6.60;;;;;;;20.35;51.36;100437.19;4940032;28;20105;-88
2023/09/05 07:37:51;;;;;;;36.30;6.68;;;;;;;20.31;50.71;100420.44;4980314;28;20046;-90
2023/09/05 07:40:17;;;;;;;19.37;6.30;;;;;;;20.29;50.82;100400.53;4979955;28;20141;-88
2023/09/05 07:42:44;;;;;;;21.25;5.25;;;;;;;20.41;51.30;100417.16;4973712;28;20045;-89
2023/09/05 07:45:10;;;;;;;24.10;6.97;;;;;;;20.63;51.54;100434.47;4966480;28;20050;-89
2023/09/05 07:47:36;;;;;;;15.52;5.88;;;;;;;20.52;50.71;100422.22;4980225;28;20317;-88
2023/09/05 07:50:04;;;;;;;12.87;4.97;;;;;;;20.58;51.49;100426.38;5015695;28;20045;-88
2023/09/05 07:52:32;;;;;;;24.73;5.68;;;;;;;20.57;50.45;100433.13;4965200;28;20073;-90
2023/09/05 07:54:59;;;;;;;17.02;5.05;;;;;;;20.49;51.19;100414.56;4963634;28;20046;-88
2023/09/05 07:57:24;;;;;;;11.33;5.40;;;;;;;20.30;51.45;100370.81;4965125;28;20042;-86
2023/09/05 07:59:50;;;;;;;10.23;5.73;;;;;;;20.48;51.11;100399.06;4991181;28;20061;-88
2023/09/05 08:02:16;;;;;;;14.10;5.20;;;;;;;20.56;49.55;100412.88;5000984;28;20045;-88
2023/09/05 08:04:42;;;;;;;25.93;5.60;;;;;;;20.54;50.44;100398.50;4975335;28;20047;-88
2023/09/05 08:07:08;;;;;;;18.80;5.40;;;;;;;20.49;51.46;100367.34;4996092;28;20133;-89
2023/09/05 08:09:34;;;;;;;13.90;5.43;;;;;;;20.55;50.36;100372.31;4988691;28;20042;-89
2023/09/05 08:12:01;;;;;;;17.83;5.53;;;;;;;20.75;50.32;100397.47;5004551;28;20415;-88
2023/09/05 08:14:27;;;;;;;16.33;5.75;;;;;;;20.41;48.79;100336.59;4991422;28;20538;-87
2023/09/05 08:16:54;;;;;;;12.35;4.95;;;;;;;20.61;49.56;100356.22;4971100;28;20045;-87
2023/09/05 08:19:21;;;;;;;14.05;4.85;;;;;;;20.63;48.59;100360.28;5009014;28;20054;-88
2023/09/05 08:21:47;;;;;;;14.07;5.30;;;;;;;20.79;49.57;100381.69;4966371;28;20041;-87
2023/09/05 08:24:13;;;;;;;15.37;4.13;;;;;;;20.59;48.93;100337.09;4967809;28;20042;-88
2023/09/05 08:26:40;;;;;;;12.97;4.87;;;;;;;20.84;49.09;100354.47;4985959;28;20074;-88
2023/09/05 08:29:06;;;;;;;8.93;4.75;;;;;;;21.01;48.10;100374.75;4974899;28;20105;-89
2023/09/05 08:31:33;;;;;;;18.52;4.78;;;;;;;20.79;47.03;100335.25;4987483;28;20047;-90
2023/09/05 08:33:59;;;;;;;15.25;5.30;;;;;;;20.91;47.95;100341.91;4956779;28;20078;-87
2023/09/05 08:36:26;;;;;;;16.45;5.55;;;;;;;21.11;48.88;100365.88;4977163;28;20038;-87
2023/09/05 08:38:52;;;;;;;15.27;6.13;;;;;;;21.17;49.14;100370.00;5000705;28;20046;-88
2023/09/05 08:41:18;;;;;;;16.77;5.97;;;;;;;21.19;48.08;100366.84;4973660;28;20297;-87
2023/09/05 08:43:45;;;;;;;17.00;5.70;;;;;;;21.22;48.66;100357.78;4982333;28;20049;-87
2023/09/05 08:46:13;;;;;;;15.85;5.57;;;;;;;21.35;47.61;100384.38;4998157;28;20062;-89
2023/09/05 08:48:39;;;;;;;23.50;6.30;;;;;;;21.26;47.94;100381.75;5002932;28;20042;-92
2023/09/05 08:51:09;;;;;;;11.90;4.88;;;;;;;21.05;48.22;100364.50;5005176;28;20137;-89
2023/09/05 08:53:40;;;;;;;15.55;4.90;;;;;;;20.88;48.62;100351.78;4966607;28;20035;-88
2023/09/05 08:56:08;;;;;;;19.55;6.57;;;;;;;20.94;47.62;100366.22;4965810;28;20064;-88
2023/09/05 08:58:35;;;;;;;24.77;6.55;;;;;;;21.02;48.67;100365.22;4967542;28;20053;-87
2023/09/05 09:01:01;;;;;;;21.98;5.13;;;;;;;21.14;45.84;100361.56;4996707;23;20046;-88
2023/09/05 09:03:30;;;;;;;20.25;5.72;;;;;;;21.18;46.82;100337.44;4990664;28;20038;-88
2023/09/05 09:05:57;;;;;;;8.48;4.88;;;;;;;21.53;46.60;100373.69;5003301;28;20534;-88
2023/09/05 09:08:23;;;;;;;6.22;4.20;;;;;;;21.29;44.42;100330.97;4985739;28;20132;-88
2023/09/05 09:11:09;;;;;;;16.48;5.22;;;;;;;21.55;45.69;100349.88;4992218;28;20492;-91
2023/09/05 09:13:38;;;;;;;20.08;5.20;;;;;;;21.65;45.05;100364.41;4972000;28;20123;-88
2023/09/05 09:16:04;;;;;;;34.58;6.30;;;;;;;21.58;45.35;100359.47;4987562;28;20531;-89
2023/09/05 09:18:34;;;;;;;;;;;;;;;21.48;45.35;100368.38;4965817;28;20048;-88
2023/09/05 09:21:04;;;;;;;16.83;5.35;;;;;;;21.37;44.50;100356.22;5005082;28;19921;-89
2023/09/05 09:23:35;;;;;;;24.23;5.50;;;;;;;21.43;45.42;100372.25;4974561;28;20046;-88
2023/09/05 09:26:07;;;;;;;13.63;4.68;;;;;;;21.17;44.46;100339.41;4977135;28;20039;-88
2023/09/05 09:28:37;;;;;;;16.73;5.60;;;;;;;21.40;45.21;100373.00;5002474;28;20066;-89
2023/09/05 09:31:13;;;;;;;13.23;5.25;;;;;;;21.38;44.96;100372.53;5001631;28;20042;-88
2023/09/05 09:33:41;;;;;;;21.55;5.30;;;;;;;21.24;45.74;100353.50;4961386;28;20042;-88
2023/09/05 09:36:10;;;;;;;117.50;9.77;;;;;;;21.35;45.81;100376.03;4996160;28;20070;-89
2023/09/05 09:38:38;;;;;;;21.58;5.90;;;;;;;21.19;45.47;100364.06;4949027;28;20046;-90
2023/09/05 09:41:07;;;;;;;34.22;6.38;;;;;;;21.23;45.48;100374.13;4983045;28;20047;-88
2023/09/05 09:43:54;;;;;;;27.95;6.20;;;;;;;20.88;44.97;100337.88;4982159;28;20042;-92
2023/09/05 09:46:24;;;;;;;15.50;5.00;;;;;;;21.06;45.09;100366.16;4963626;28;20054;-89
2023/09/05 09:48:54;;;;;;;22.83;5.07;;;;;;;21.20;44.54;100362.91;4938871;28;20043;-90
2023/09/05 09:51:26;;;;;;;32.40;5.28;;;;;;;21.39;44.29;100360.25;4956554;28;20444;-90
2023/09/05 09:54:18;;;;;;;34.70;5.88;;;;;;;21.46;46.00;100362.41;4948618;28;20019;-90
2023/09/05 09:56:47;;;;;;;17.85;4.43;;;;;;;21.40;44.51;100358.28;4959294;28;20051;-91
2023/09/05 09:59:20;;;;;;;12.95;4.28;;;;;;;21.20;45.59;100312.88;4949518;28;20550;-93
2023/09/05 10:01:47;;;;;;;10.48;3.90;;;;;;;21.25;45.77;100302.25;4944654;28;20904;-91
2023/09/05 10:04:16;;;;;;;10.15;3.55;;;;;;;21.49;44.92;100317.97;4933155;28;20102;-92
2023/09/05 10:06:45;;;;;;;10.35;3.22;;;;;;;21.74;45.76;100326.88;4950945;28;20123;-92
2023/09/05 10:09:13;;;;;;;7.97;3.58;;;;;;;22.04;46.11;100335.47;4955744;28;20057;-92
2023/09/05 10:11:40;;;;;;;17.85;4.28;;;;;;;22.16;44.30;100334.56;4957973;28;20038;-91
2023/09/05 10:14:07;;;;;;;10.68;3.47;;;;;;;21.93;41.51;100297.44;4958859;28;20050;-90
2023/09/05 10:16:37;;;;;;;22.02;4.53;;;;;;;22.07;41.19;100313.63;4923974;28;20059;-93
2023/09/05 10:19:09;;;;;;;14.32;4.05;;;;;;;22.23;41.20;100329.13;4988167;28;20513;-93
2023/09/05 10:21:37;;;;;;;33.65;6.20;;;;;;;22.31;42.07;100306.97;4939900;28;20124;-90
2023/09/05 10:24:05;;;;;;;7.10;3.38;;;;;;;22.52;40.83;100329.69;4984677;28;20055;-91
2023/09/05 10:26:33;;;;;;;12.52;3.35;;;;;;;22.27;40.02;100293.78;4930142;29;20047;-91
2023/09/05 10:28:59;;;;;;;6.10;3.30;;;;;;;22.36;39.68;100310.28;4915174;29;20060;-92
2023/09/05 10:31:31;;;;;;;10.00;3.33;;;;;;;22.24;39.82;100290.94;4928789;29;20103;-91
2023/09/05 10:33:58;;;;;;;;;;;;;;;22.52;41.09;100330.50;4917860;29;20034;-91
2023/09/05 10:36:46;;;;;;;8.98;3.33;;;;;;;22.54;40.49;100334.88;4925830;29;19958;-91
2023/09/05 10:39:27;;;;;;;13.75;4.07;;;;;;;22.37;40.16;100303.53;4929280;29;20055;-91
2023/09/05 10:41:57;;;;;;;9.63;3.47;;;;;;;22.27;40.00;100281.84;4915175;29;20562;-92
2023/09/05 10:44:24;;;;;;;7.90;3.47;;;;;;;22.58;39.81;100319.84;4930205;29;20086;-91
2023/09/05 10:47:27;;;;;;;4.75;3.20;;;;;;;22.66;39.31;100321.59;4909505;29;20052;-92
2023/09/05 10:50:03;;;;;;;8.13;3.50;;;;;;;22.50;38.47;100282.69;4911825;29;20056;-91
2023/09/05 10:52:30;;;;;;;17.38;3.80;;;;;;;22.80;38.67;100314.66;4897973;29;20099;-88
2023/09/05 10:54:58;;;;;;;6.07;3.45;;;;;;;22.75;38.54;100273.97;4923180;29;20453;-91
2023/09/05 10:57:34;;;;;;;5.95;3.05;;;;;;;23.13;37.98;100306.50;4908425;29;20460;-92
2023/09/05 11:00:15;;;;;;;7.75;3.30;;;;;;;23.16;38.39;100299.38;4896128;29;20055;-91
2023/09/05 11:02:44;;;;;;;10.80;3.40;;;;;;;23.32;36.36;100308.38;4922591;29;20047;-92
2023/09/05 11:05:20;;;;;;;9.93;5.25;;;;;;;23.29;36.18;100306.34;4964470;28;20038;-91
2023/09/05 11:07:55;;;;;;;12.82;4.13;;;;;;;23.40;37.12;100304.50;4951616;28;20133;-94
2023/09/05 11:10:34;;;;;;;7.45;3.42;;;;;;;23.34;37.21;100277.31;4932711;28;20046;-90
2023/09/05 11:13:08;;;;;;;8.82;5.45;;;;;;;23.44;37.15;100288.66;4974168;28;20508;-93
2023/09/05 11:15:36;;;;;;;8.52;4.03;;;;;;;23.58;38.12;100292.81;4944907;28;20107;-89
2023/09/05 11:18:05;;;;;;;10.02;5.18;;;;;;;23.51;36.84;100271.19;4952376;28;20073;-89
2023/09/05 11:20:50;;;;;;;10.70;4.68;;;;;;;23.79;37.61;100290.34;4983837;28;20046;-88
2023/09/05 11:23:20;;;;;;;8.35;4.65;;;;;;;23.82;38.21;100294.38;4954641;28;20046;-92
2023/09/05 11:25:53;;;;;;;11.82;4.63;;;;;;;23.89;38.20;100283.28;4951263;28;20043;-90
2023/09/05 11:28:23;;;;;;;10.40;4.67;;;;;;;23.68;38.67;100234.38;4901305;28;20141;-91
2023/09/05 11:30:57;;;;;;;15.07;4.55;;;;;;;24.00;38.38;100255.47;4953438;28;20423;-91
2023/09/05 11:33:27;;;;;;;9.95;5.03;;;;;;;24.17;37.21;100287.59;4977101;28;20042;-90
2023/09/05 11:35:56;;;;;;;9.82;3.85;;;;;;;23.92;36.61;100247.03;4959819;28;20046;-92
2023/09/05 11:38:25;;;;;;;13.68;4.28;;;;;;;24.07;36.50;100263.94;4972215;28;20423;-95
2023/09/05 11:40:54;;;;;;;10.27;4.63;;;;;;;24.11;37.66;100264.81;4954927;28;20137;-90
2023/09/05 11:43:23;;;;;;;58.28;6.50;;;;;;;24.15;39.26;100255.28;4949956;28;20039;-90
2023/09/05 11:45:55;;;;;;;22.10;6.32;;;;;;;24.28;37.44;100266.19;4950733;28;20134;-92
2023/09/05 11:48:23;;;;;;;16.00;5.45;;;;;;;24.25;35.39;100258.56;5001257;28;20535;-93
2023/09/05 11:50:53;;;;;;;21.77;6.10;;;;;;;24.21;37.12;100227.78;4973254;28;20050;-95
2023/09/05 11:53:21;;;;;;;10.82;6.10;;;;;;;24.13;34.83;100240.88;4953134;28;20138;-94
2023/09/05 11:55:48;;;;;;;11.70;4.28;;;;;;;24.24;33.48;100251.34;4952094;28;20050;-95
2023/09/05 11:58:19;;;;;;;11.07;3.88;;;;;;;24.23;32.58;100255.34;4968662;28;20451;-94
2023/09/05 12:00:46;;;;;;;13.98;4.57;;;;;;;24.14;33.20;100241.69;4921980;28;20063;-93
2023/09/05 12:03:14;;;;;;;12.40;4.50;;;;;;;24.04;32.40;100228.38;4954971;28;20110;-90
2023/09/05 12:05:43;;;;;;;9.68;4.53;;;;;;;24.22;32.78;100239.78;4962881;28;20088;-91
2023/09/05 12:08:10;;;;;;;13.82;5.65;;;;;;;24.31;34.77;100237.47;4964054;28;20550;-92
2023/09/05 12:10:41;;;;;;;17.83;3.95;;;;;;;24.15;33.17;100210.56;4966526;28;20066;-95
2023/09/05 12:13:08;;;;;;;11.13;4.65;;;;;;;23.68;34.18;100175.75;4950447;28;20039;-92